createdAt,value
2017-06-29T00:02:46.097Z,17.20
2017-06-29T00:07:42.003Z,17.12
2017-06-29T00:12:38.824Z,16.97
2017-06-29T00:17:34.337Z,17.05
2017-06-29T00:22:31.213Z,17.12
2017-06-29T00:27:28.709Z,17.12
2017-06-29T00:32:24.465Z,17.09
2017-06-29T00:37:21.324Z,17.20
2017-06-29T00:42:17.912Z,17.19
2017-06-29T00:47:13.581Z,17.06
2017-06-29T00:52:10.582Z,17.04
2017-06-29T00:57:06.055Z,16.99
2017-06-29T01:02:03.199Z,17.02
2017-06-29T01:06:58.956Z,16.99
2017-06-29T01:11:54.902Z,16.96
2017-06-29T01:16:50.604Z,16.99
2017-06-29T01:21:46.369Z,16.93
2017-06-29T01:26:42.622Z,16.78
2017-06-29T01:31:38.588Z,16.84
2017-06-29T01:36:34.889Z,16.81
2017-06-29T01:41:31.880Z,16.79
2017-06-29T01:46:27.383Z,16.86
2017-06-29T01:51:23.180Z,16.83
2017-06-29T01:56:19.033Z,16.74
2017-06-29T02:01:16.276Z,16.86
2017-06-29T02:06:13.263Z,16.76
2017-06-29T02:11:09.023Z,16.71
2017-06-29T02:16:04.834Z,16.74
2017-06-29T02:21:01.169Z,16.78
2017-06-29T02:25:58.409Z,16.86
2017-06-29T02:30:54.813Z,16.75
2017-06-29T02:35:50.303Z,16.72
2017-06-29T02:40:46.625Z,16.68
2017-06-29T02:45:42.363Z,16.58
2017-06-29T02:50:38.933Z,16.49
2017-06-29T02:55:34.566Z,16.24
2017-06-29T03:00:30.466Z,16.24
2017-06-29T03:05:26.478Z,16.21
2017-06-29T03:10:22.343Z,16.16
2017-06-29T03:15:18.222Z,16.12
2017-06-29T03:20:14.158Z,15.86
2017-06-29T03:25:09.888Z,15.82
2017-06-29T03:30:07.706Z,15.91
2017-06-29T03:35:04.197Z,15.92
2017-06-29T03:40:00.629Z,15.86
2017-06-29T03:44:57.488Z,15.83
2017-06-29T03:49:54.868Z,15.91
2017-06-29T03:54:51.832Z,15.84
2017-06-29T03:59:48.514Z,15.97
2017-06-29T04:04:44.211Z,16.05
2017-06-29T04:09:41.661Z,16.08
2017-06-29T04:14:37.515Z,15.97
2017-06-29T04:19:34.456Z,15.92
2017-06-29T04:24:30.090Z,16.10
2017-06-29T04:29:27.315Z,16.38
2017-06-29T04:34:22.855Z,16.49
2017-06-29T04:39:20.572Z,16.75
2017-06-29T04:44:16.201Z,16.69
2017-06-29T04:49:12.595Z,16.71
2017-06-29T04:54:08.541Z,16.89
2017-06-29T04:59:04.530Z,16.81
2017-06-29T05:04:01.431Z,16.75
2017-06-29T05:08:56.982Z,16.71
2017-06-29T05:13:53.650Z,16.84
2017-06-29T05:18:51.545Z,16.97
2017-06-29T05:23:48.964Z,17.20
2017-06-29T05:28:44.595Z,17.49
2017-06-29T05:33:40.658Z,17.63
2017-06-29T05:38:36.844Z,18.38
2017-06-29T05:43:34.697Z,19.24
2017-06-29T05:48:32.680Z,19.34
2017-06-29T05:53:28.931Z,19.09
2017-06-29T05:58:24.616Z,19.19
2017-06-29T06:03:20.572Z,19.02
2017-06-29T06:08:16.531Z,18.93
2017-06-29T06:13:12.097Z,19.00
2017-06-29T06:18:07.955Z,18.99
2017-06-29T06:23:07.912Z,19.14
2017-06-29T06:28:03.437Z,19.48
2017-06-29T06:33:00.318Z,19.37
2017-06-29T06:37:56.594Z,19.55
2017-06-29T06:42:52.450Z,19.49
2017-06-29T06:47:49.478Z,19.58
2017-06-29T06:52:45.368Z,19.77
2017-06-29T06:57:41.674Z,19.89
2017-06-29T07:02:38.572Z,19.77
2017-06-29T07:07:34.020Z,19.74
2017-06-29T07:12:30.181Z,19.67
2017-06-29T07:17:25.835Z,19.63
2017-06-29T07:22:21.669Z,19.66
2017-06-29T07:27:17.560Z,19.79
2017-06-29T07:32:13.685Z,19.81
2017-06-29T07:37:09.526Z,19.81
2017-06-29T07:42:05.178Z,19.70
2017-06-29T07:47:01.466Z,19.84
2017-06-29T07:51:58.524Z,20.02
2017-06-29T07:56:53.924Z,20.02
2017-06-29T08:01:50.271Z,19.99
2017-06-29T08:06:45.559Z,19.89
2017-06-29T08:11:42.399Z,19.71
2017-06-29T08:16:37.834Z,19.70
2017-06-29T08:21:34.477Z,19.64
2017-06-29T08:26:30.971Z,19.56
2017-06-29T08:31:26.440Z,19.40
2017-06-29T08:36:21.993Z,19.21
2017-06-29T08:41:18.906Z,19.37
2017-06-29T08:46:14.824Z,19.31
2017-06-29T08:51:11.172Z,19.48
2017-06-29T08:56:08.279Z,19.64
2017-06-29T09:01:05.209Z,19.81
2017-06-29T09:06:01.814Z,19.92
2017-06-29T09:10:57.206Z,19.70
2017-06-29T09:15:52.909Z,19.55
2017-06-29T09:20:48.531Z,19.64
2017-06-29T09:25:45.835Z,19.67
2017-06-29T09:30:41.881Z,19.63
2017-06-29T09:35:38.994Z,19.82
2017-06-29T09:40:34.952Z,19.89
2017-06-29T09:45:32.165Z,20.11
2017-06-29T09:50:27.739Z,20.19
2017-06-29T09:55:23.770Z,20.18
2017-06-29T10:00:24.603Z,20.11
2017-06-29T10:05:23.264Z,20.09
2017-06-29T10:10:17.972Z,19.95
2017-06-29T10:15:14.644Z,19.84
2017-06-29T10:20:10.933Z,19.73
2017-06-29T10:25:06.782Z,19.84
2017-06-29T10:30:02.897Z,19.88
2017-06-29T10:34:58.890Z,19.86
2017-06-29T10:39:55.045Z,19.99
2017-06-29T10:44:51.638Z,20.06
2017-06-29T10:49:49.085Z,20.19
2017-06-29T10:54:46.160Z,20.28
2017-06-29T10:59:43.053Z,20.19
2017-06-29T11:04:38.810Z,20.25
2017-06-29T11:09:34.217Z,20.18
2017-06-29T11:14:29.702Z,19.86
2017-06-29T11:19:25.049Z,19.70
2017-06-29T11:24:21.170Z,19.82
2017-06-29T11:29:17.844Z,20.02
2017-06-29T11:34:15.597Z,20.11
2017-06-29T11:39:11.531Z,20.09
2017-06-29T11:44:07.657Z,20.19
2017-06-29T11:49:03.411Z,19.96
2017-06-29T11:53:58.585Z,19.91
2017-06-29T11:58:53.907Z,19.88
2017-06-29T12:03:49.488Z,19.88
2017-06-29T12:08:46.243Z,19.71
2017-06-29T12:13:41.616Z,19.63
2017-06-29T12:18:38.138Z,19.48
2017-06-29T12:28:34.062Z,19.39
2017-06-29T12:33:30.860Z,19.48
2017-06-29T12:38:27.518Z,19.54
2017-06-29T12:43:25.379Z,19.56
2017-06-29T12:48:21.857Z,19.64
2017-06-29T12:53:17.544Z,19.64
2017-06-29T12:58:15.199Z,19.55
2017-06-29T13:03:11.870Z,19.49
2017-06-29T13:08:07.440Z,19.59
2017-06-29T13:13:03.603Z,19.59
2017-06-29T13:17:59.827Z,19.44
2017-06-29T13:22:57.943Z,19.39
2017-06-29T13:27:53.420Z,19.55
2017-06-29T13:32:49.256Z,19.48
2017-06-29T13:37:46.208Z,19.54
2017-06-29T13:42:42.368Z,19.63
2017-06-29T13:47:38.651Z,19.62
2017-06-29T13:52:34.758Z,19.70
2017-06-29T13:57:32.478Z,19.70
2017-06-29T14:02:29.276Z,19.86
2017-06-29T14:07:24.944Z,19.77
2017-06-29T14:12:22.829Z,19.84
2017-06-29T14:17:18.296Z,19.86
2017-06-29T14:22:16.738Z,19.96
2017-06-29T14:27:13.245Z,20.00
2017-06-29T14:32:08.945Z,19.95
2017-06-29T14:37:04.831Z,19.95
2017-06-29T14:42:00.713Z,20.14
2017-06-29T14:46:57.690Z,20.16
2017-06-29T14:51:53.762Z,20.18
2017-06-29T14:56:50.746Z,20.21
2017-06-29T15:01:47.448Z,20.32
2017-06-29T15:06:45.399Z,20.32
2017-06-29T15:11:41.935Z,20.41
2017-06-29T15:16:38.886Z,20.59
2017-06-29T15:21:34.553Z,20.58
2017-06-29T15:26:30.233Z,20.55
2017-06-29T15:31:26.511Z,20.48
2017-06-29T15:36:23.262Z,20.41
2017-06-29T15:41:19.881Z,20.39
2017-06-29T15:46:15.368Z,20.44
2017-06-29T15:51:11.401Z,20.39
2017-06-29T15:56:08.313Z,20.31
2017-06-29T16:01:04.226Z,20.37
2017-06-29T16:06:00.393Z,20.28
2017-06-29T16:10:56.320Z,20.40
2017-06-29T16:15:52.169Z,20.40
2017-06-29T16:20:47.879Z,20.48
2017-06-29T16:25:44.058Z,20.55
2017-06-29T16:30:40.377Z,20.55
2017-06-29T16:35:36.307Z,20.52
2017-06-29T16:40:33.208Z,20.48
2017-06-29T16:45:28.621Z,20.52
2017-06-29T16:50:24.446Z,20.50
2017-06-29T16:55:21.343Z,20.55
2017-06-29T17:00:16.658Z,20.41
2017-06-29T17:05:12.444Z,20.50
2017-06-29T17:10:08.351Z,20.40
2017-06-29T17:15:05.208Z,20.28
2017-06-29T17:20:00.798Z,19.88
2017-06-29T17:24:56.485Z,19.76
2017-06-29T17:29:51.848Z,19.74
2017-06-29T17:34:47.480Z,19.71
2017-06-29T17:39:43.348Z,19.64
2017-06-29T17:44:38.974Z,19.69
2017-06-29T17:49:35.093Z,19.69
2017-06-29T17:54:33.185Z,19.74
2017-06-29T17:59:28.598Z,19.69
2017-06-29T18:04:26.414Z,19.70
2017-06-29T18:09:21.903Z,19.64
2017-06-29T18:14:17.911Z,19.59
2017-06-29T18:19:13.581Z,19.40
2017-06-29T18:24:10.359Z,19.39
2017-06-29T18:29:05.944Z,19.36
2017-06-29T18:34:01.870Z,19.39
2017-06-29T18:38:58.221Z,19.24
2017-06-29T18:43:54.513Z,19.19
2017-06-29T18:48:50.372Z,19.24
2017-06-29T18:53:47.521Z,19.16
2017-06-29T18:58:43.482Z,19.15
2017-06-29T19:03:39.178Z,19.11
2017-06-29T19:08:35.180Z,18.90
2017-06-29T19:13:31.387Z,18.96
2017-06-29T19:18:27.037Z,18.95
2017-06-29T19:23:22.876Z,18.90
2017-06-29T19:28:18.629Z,18.86
2017-06-29T19:33:14.540Z,18.89
2017-06-29T19:38:10.697Z,18.80
2017-06-29T19:43:06.527Z,18.68
2017-06-29T19:48:02.290Z,18.63
2017-06-29T19:52:59.430Z,18.66
2017-06-29T19:57:54.881Z,18.63
2017-06-29T20:02:51.686Z,18.52
2017-06-29T20:07:47.194Z,18.63
2017-06-29T20:12:42.868Z,18.52
2017-06-29T20:17:40.218Z,18.52
2017-06-29T20:22:35.877Z,18.40
2017-06-29T20:27:32.692Z,18.43
2017-06-29T20:32:28.310Z,18.38
2017-06-29T20:37:24.111Z,18.35
2017-06-29T20:42:21.218Z,18.34
2017-06-29T20:47:17.045Z,18.29
2017-06-29T20:52:14.363Z,18.37
2017-06-29T20:57:10.007Z,18.25
2017-06-29T21:02:06.379Z,18.35
2017-06-29T21:07:01.806Z,18.25
2017-06-29T21:11:58.005Z,18.20
2017-06-29T21:16:53.612Z,18.31
2017-06-29T21:21:49.718Z,18.26
2017-06-29T21:26:45.701Z,18.22
2017-06-29T21:31:41.617Z,18.11
2017-06-29T21:36:38.442Z,18.16
2017-06-29T21:41:34.342Z,18.04
2017-06-29T21:46:31.114Z,17.97
2017-06-29T21:51:26.737Z,18.00
2017-06-29T21:56:22.816Z,17.94
2017-06-29T22:01:18.647Z,17.87
2017-06-29T22:06:15.724Z,17.86
2017-06-29T22:11:12.496Z,17.86
2017-06-29T22:16:08.182Z,17.86
2017-06-29T22:21:04.304Z,17.83
2017-06-29T22:26:00.323Z,17.74
2017-06-29T22:30:56.244Z,17.70
2017-06-29T22:35:51.814Z,17.80
2017-06-29T22:40:47.676Z,17.83
2017-06-29T22:45:44.971Z,17.74
2017-06-29T22:50:40.450Z,17.72
2017-06-29T22:55:37.464Z,17.78
2017-06-29T23:00:32.763Z,17.70
2017-06-29T23:05:29.678Z,17.72
2017-06-29T23:10:25.735Z,17.70
2017-06-29T23:15:21.309Z,17.71
2017-06-29T23:20:17.464Z,17.71
2017-06-29T23:25:13.152Z,17.76
2017-06-29T23:30:09.923Z,17.65
2017-06-29T23:35:06.184Z,17.57
2017-06-29T23:40:01.693Z,17.68
2017-06-29T23:44:57.601Z,17.65
2017-06-29T23:49:53.400Z,17.51
2017-06-29T23:54:50.217Z,17.63
2017-06-29T23:59:46.834Z,17.60
